Weather at Guernsey Airport

Public forecast

Using degrees Celsius for public forecast. Weather courtesy of forecast.io.

Current aviation weather report (METAR) for Guernsey Airport

Report is more than 6 hours old.

2022/11/14 15:20 (retrieved 2 years ago)

EGJB 141520Z 26014KT 9999 FEW023 12/07 Q1008

Closest aviation forecast (TAF) to Guernsey Airport

Forecast is more than 12 hours old.

Closest forecast is Dinard-Pleurtuit-Saint-Malo Airport, 54.9 nm (101.6 km) SSE.

2023/02/22 18:22 (retrieved 1 year ago)

TAF LFRD 221700Z 2218/2318 31012KT 9999 BKN030 BECMG 2222/2224 VRB05KT PROB30 TEMPO 2303/2308 3000 BR BECMG 2308/2311 03010KT PROB30 TEMPO 2309/2315 4000 SHRA BKN015